createdAt,value
2018-12-24T00:00:45.774Z,947.51
2018-12-24T00:01:45.758Z,947.46
2018-12-24T00:02:45.738Z,947.48
2018-12-24T00:03:45.722Z,947.44
2018-12-24T00:04:45.704Z,947.46
2018-12-24T00:05:45.687Z,947.43
2018-12-24T00:06:45.670Z,947.4
2018-12-24T00:07:45.654Z,947.42
2018-12-24T00:08:45.637Z,947.39
2018-12-24T00:09:45.620Z,947.38
2018-12-24T00:10:45.604Z,947.31
2018-12-24T00:11:45.588Z,947.31
2018-12-24T00:12:45.568Z,947.38
2018-12-24T00:13:45.551Z,947.39
2018-12-24T00:14:45.534Z,947.38
2018-12-24T00:15:45.516Z,947.45
2018-12-24T00:16:45.499Z,947.49
2018-12-24T00:17:45.483Z,947.49
2018-12-24T00:18:45.468Z,947.48
2018-12-24T00:19:45.447Z,947.5
2018-12-24T00:20:45.429Z,947.55
2018-12-24T00:21:45.417Z,947.54
2018-12-24T00:22:45.395Z,947.53
2018-12-24T00:23:45.377Z,947.48
2018-12-24T00:24:45.361Z,947.55
2018-12-24T00:25:45.344Z,947.57
2018-12-24T00:26:45.326Z,947.6
2018-12-24T00:27:45.309Z,947.6
2018-12-24T00:28:45.291Z,947.56
2018-12-24T00:29:45.273Z,947.59
2018-12-24T00:30:45.254Z,947.54
2018-12-24T00:31:45.237Z,947.52
2018-12-24T00:32:45.219Z,947.53
2018-12-24T00:33:45.202Z,947.53
2018-12-24T00:34:45.187Z,947.48
2018-12-24T00:35:45.169Z,947.5
2018-12-24T00:36:45.151Z,947.44
2018-12-24T00:37:45.134Z,947.46
2018-12-24T00:38:45.116Z,947.52
2018-12-24T00:39:45.098Z,947.5
2018-12-24T00:40:45.081Z,947.56
2018-12-24T00:41:45.064Z,947.58
2018-12-24T00:42:45.048Z,947.58
2018-12-24T00:43:45.027Z,947.62
2018-12-24T00:44:45.010Z,947.63
2018-12-24T00:45:44.992Z,947.67
2018-12-24T00:46:44.975Z,947.67
2018-12-24T00:47:44.956Z,947.67
2018-12-24T00:48:44.939Z,947.66
2018-12-24T00:49:44.921Z,947.66
2018-12-24T00:50:44.907Z,947.62
2018-12-24T00:51:44.885Z,947.7
2018-12-24T00:52:44.868Z,947.66
2018-12-24T00:53:44.852Z,947.72
2018-12-24T00:54:44.833Z,947.68
2018-12-24T00:55:44.814Z,947.74
2018-12-24T00:56:44.797Z,947.8
2018-12-24T00:57:44.779Z,947.83
2018-12-24T00:58:44.760Z,947.86
2018-12-24T00:59:44.741Z,947.91
2018-12-24T01:00:44.725Z,948
2018-12-24T01:01:44.707Z,948.06
2018-12-24T01:02:44.689Z,948.05
2018-12-24T01:03:44.672Z,948.07
2018-12-24T01:04:44.653Z,948.08
2018-12-24T01:05:44.635Z,947.98
2018-12-24T01:06:44.616Z,947.94
2018-12-24T01:07:44.598Z,947.9
2018-12-24T01:08:44.580Z,947.84
2018-12-24T01:09:44.564Z,947.89
2018-12-24T01:10:44.545Z,947.97
2018-12-24T01:11:44.527Z,948.02
2018-12-24T01:12:44.511Z,948.06
2018-12-24T01:13:44.490Z,948.06
2018-12-24T01:14:44.472Z,948.01
2018-12-24T01:15:44.455Z,947.96
2018-12-24T01:16:44.437Z,947.99
2018-12-24T01:17:44.419Z,948
2018-12-24T01:18:44.401Z,948.07
2018-12-24T01:19:44.386Z,948.12
2018-12-24T01:20:44.364Z,948.14
2018-12-24T01:21:44.346Z,948.18
2018-12-24T01:22:44.329Z,948.18
2018-12-24T01:23:44.312Z,948.1
2018-12-24T01:24:44.292Z,948.16
2018-12-24T01:25:44.275Z,948.05
2018-12-24T01:26:44.256Z,947.97
2018-12-24T01:27:44.239Z,947.98
2018-12-24T01:28:44.219Z,947.95
2018-12-24T01:29:44.201Z,948.02
2018-12-24T01:30:44.187Z,948.08
2018-12-24T01:31:44.166Z,948.11
2018-12-24T01:32:44.156Z,948.11
2018-12-24T01:33:44.130Z,948.13
2018-12-24T01:34:44.112Z,948.14
2018-12-24T01:35:44.094Z,948.16
2018-12-24T01:36:44.076Z,948.19
2018-12-24T01:37:44.060Z,948.18
2018-12-24T01:38:44.039Z,948.19
2018-12-24T01:39:44.028Z,948.18
2018-12-24T01:40:44.005Z,948.11
2018-12-24T01:41:43.987Z,948.13
2018-12-24T01:42:43.967Z,948.14
2018-12-24T01:43:43.951Z,948.12
2018-12-24T01:44:43.932Z,948.17
2018-12-24T01:45:43.914Z,948.22
2018-12-24T01:46:43.897Z,948.18
2018-12-24T01:47:43.879Z,948.18
2018-12-24T01:48:43.862Z,948.22
2018-12-24T01:49:43.842Z,948.35
2018-12-24T01:50:43.826Z,948.36
2018-12-24T01:51:43.807Z,948.32
2018-12-24T01:52:43.789Z,948.35
2018-12-24T01:53:43.771Z,948.41
2018-12-24T01:54:43.754Z,948.37
2018-12-24T01:55:43.736Z,948.37
2018-12-24T01:56:43.717Z,948.37
2018-12-24T01:57:43.699Z,948.32
2018-12-24T01:58:43.682Z,948.29
2018-12-24T01:59:43.664Z,948.24
2018-12-24T02:00:43.644Z,948.31
2018-12-24T02:01:43.627Z,948.39
2018-12-24T02:02:43.610Z,948.35
2018-12-24T02:03:43.592Z,948.42
2018-12-24T02:04:43.572Z,948.48
2018-12-24T02:05:43.555Z,948.46
2018-12-24T02:06:43.537Z,948.52
2018-12-24T02:07:43.517Z,948.55
2018-12-24T02:08:43.501Z,948.59
2018-12-24T02:09:43.482Z,948.6
2018-12-24T02:10:43.465Z,948.55
2018-12-24T02:11:43.444Z,948.58
2018-12-24T02:12:43.429Z,948.65
2018-12-24T02:13:43.412Z,948.63
2018-12-24T02:14:43.390Z,948.54
2018-12-24T02:15:43.374Z,948.54
2018-12-24T02:16:43.355Z,948.5
2018-12-24T02:17:43.336Z,948.51
2018-12-24T02:18:43.317Z,948.55
2018-12-24T02:19:43.299Z,948.55
2018-12-24T02:20:43.281Z,948.62
2018-12-24T02:21:43.263Z,948.66
2018-12-24T02:22:43.244Z,948.66
2018-12-24T02:23:43.235Z,948.71
2018-12-24T02:24:43.207Z,948.78
2018-12-24T02:25:43.189Z,948.81
2018-12-24T02:26:43.170Z,948.8
2018-12-24T02:27:43.152Z,948.78
2018-12-24T02:28:43.134Z,948.84
2018-12-24T02:29:43.114Z,948.89
2018-12-24T02:30:43.096Z,948.86
2018-12-24T02:31:43.079Z,948.88
2018-12-24T02:32:43.061Z,948.92
2018-12-24T02:33:43.041Z,948.94
2018-12-24T02:34:43.024Z,948.93
2018-12-24T02:35:43.006Z,948.95
2018-12-24T02:36:42.987Z,948.95
2018-12-24T02:37:42.970Z,948.9
2018-12-24T02:38:42.950Z,948.95
2018-12-24T02:39:42.932Z,948.89
2018-12-24T02:40:42.917Z,948.93
2018-12-24T02:41:42.895Z,948.93
2018-12-24T02:42:52.024Z,948.97
2018-12-24T02:43:42.859Z,949.03
2018-12-24T02:44:42.840Z,949.09
2018-12-24T02:45:42.826Z,949.14
2018-12-24T02:46:42.804Z,949.17
2018-12-24T02:47:42.787Z,949.27
2018-12-24T02:48:42.767Z,949.27
2018-12-24T02:49:42.749Z,949.29
2018-12-24T02:50:42.731Z,949.3
2018-12-24T02:51:42.712Z,949.28
2018-12-24T02:52:42.693Z,949.29
2018-12-24T02:53:42.676Z,949.3
2018-12-24T02:54:42.657Z,949.31
2018-12-24T02:55:42.638Z,949.36
2018-12-24T02:56:42.623Z,949.36
2018-12-24T02:57:42.602Z,949.32
2018-12-24T02:58:42.585Z,949.34
2018-12-24T02:59:42.571Z,949.39
2018-12-24T03:00:42.546Z,949.43
2018-12-24T03:01:42.528Z,949.42
2018-12-24T03:02:42.510Z,949.43
2018-12-24T03:03:42.491Z,949.47
2018-12-24T03:04:42.473Z,949.46
2018-12-24T03:05:42.455Z,949.45
2018-12-24T03:06:42.437Z,949.47
2018-12-24T03:07:42.419Z,949.42
2018-12-24T03:08:42.400Z,949.43
2018-12-24T03:09:42.384Z,949.46
2018-12-24T03:10:42.367Z,949.47
2018-12-24T03:11:42.347Z,949.45
2018-12-24T03:12:42.332Z,949.43
2018-12-24T03:13:42.311Z,949.45
2018-12-24T03:14:42.291Z,949.5
2018-12-24T03:15:42.274Z,949.5
2018-12-24T03:16:42.255Z,949.36
2018-12-24T03:17:42.236Z,949.33
2018-12-24T03:18:42.220Z,949.32
2018-12-24T03:19:42.201Z,949.3
2018-12-24T03:20:42.187Z,949.36
2018-12-24T03:21:42.164Z,949.45
2018-12-24T03:22:42.146Z,949.48
2018-12-24T03:23:42.128Z,949.45
2018-12-24T03:24:42.110Z,949.53
2018-12-24T03:25:42.106Z,949.54
2018-12-24T03:26:42.074Z,949.6
2018-12-24T03:27:42.055Z,949.63
2018-12-24T03:28:42.040Z,949.69
2018-12-24T03:29:42.018Z,949.76
2018-12-24T03:30:42.019Z,949.72
2018-12-24T03:31:41.991Z,949.69
2018-12-24T03:32:41.964Z,949.72
2018-12-24T03:33:41.948Z,949.69
2018-12-24T03:34:41.928Z,949.76
2018-12-24T03:35:41.910Z,949.7
2018-12-24T03:36:41.892Z,949.73
2018-12-24T03:37:41.877Z,949.76
2018-12-24T03:38:41.858Z,949.75
2018-12-24T03:39:41.837Z,949.77
2018-12-24T03:40:41.817Z,949.81
2018-12-24T03:41:41.801Z,949.84
2018-12-24T03:42:41.782Z,949.87
2018-12-24T03:43:41.762Z,949.94
2018-12-24T03:44:41.745Z,949.95
2018-12-24T03:45:41.732Z,949.93
2018-12-24T03:46:41.707Z,949.91
2018-12-24T03:47:41.694Z,949.89
2018-12-24T03:48:41.672Z,949.9
2018-12-24T03:49:41.654Z,949.96
2018-12-24T03:50:41.636Z,949.88
2018-12-24T03:51:41.618Z,949.96
2018-12-24T03:52:41.599Z,949.91
2018-12-24T03:53:41.580Z,949.94
2018-12-24T03:54:41.563Z,949.94
2018-12-24T03:55:41.544Z,949.93
2018-12-24T03:56:41.529Z,949.93
2018-12-24T03:57:41.509Z,949.89
2018-12-24T03:58:41.491Z,949.88
2018-12-24T03:59:41.472Z,949.85
2018-12-24T04:00:41.458Z,949.96
2018-12-24T04:01:41.436Z,950.01
2018-12-24T04:02:41.419Z,950.04
2018-12-24T04:03:41.404Z,950.04
2018-12-24T04:04:41.382Z,950.13
2018-12-24T04:05:41.364Z,950.11
2018-12-24T04:06:41.345Z,950.17
2018-12-24T04:07:41.329Z,950.15
2018-12-24T04:08:41.315Z,950.15
2018-12-24T04:09:41.290Z,950.22
2018-12-24T04:10:41.271Z,950.24
2018-12-24T04:11:41.254Z,950.25
2018-12-24T04:12:41.235Z,950.24
2018-12-24T04:13:41.218Z,950.3
2018-12-24T04:14:41.199Z,950.27
2018-12-24T04:15:41.185Z,950.26
2018-12-24T04:16:41.163Z,950.34
2018-12-24T04:17:41.154Z,950.3
2018-12-24T04:18:41.130Z,950.38
2018-12-24T04:19:41.107Z,950.41
2018-12-24T04:20:41.091Z,950.38
2018-12-24T04:21:41.072Z,950.35
2018-12-24T04:22:41.054Z,950.4
2018-12-24T04:23:41.035Z,950.45
2018-12-24T04:24:41.019Z,950.46
2018-12-24T04:25:41.055Z,950.52
2018-12-24T04:26:40.981Z,950.55
2018-12-24T04:27:41.819Z,950.58
2018-12-24T04:28:40.945Z,950.56
2018-12-24T04:29:40.926Z,950.64
2018-12-24T04:30:40.907Z,950.66
2018-12-24T04:31:40.892Z,950.68
2018-12-24T04:32:40.871Z,950.72
2018-12-24T04:33:40.855Z,950.75
2018-12-24T04:34:40.834Z,950.82
2018-12-24T04:35:40.816Z,950.85
2018-12-24T04:36:40.799Z,950.85
2018-12-24T04:37:40.778Z,950.95
2018-12-24T04:38:40.761Z,950.92
2018-12-24T04:39:40.744Z,950.94
2018-12-24T04:40:40.725Z,950.97
2018-12-24T04:41:40.708Z,951.01
2018-12-24T04:42:40.703Z,951.04
2018-12-24T04:43:40.670Z,951.05
2018-12-24T04:44:40.651Z,951.15
2018-12-24T04:45:40.633Z,951.15
2018-12-24T04:46:40.616Z,951.21
2018-12-24T04:47:40.597Z,951.19
2018-12-24T04:48:40.576Z,951.24
2018-12-24T04:49:40.562Z,951.29
2018-12-24T04:50:40.544Z,951.29
2018-12-24T04:51:40.524Z,951.31
2018-12-24T04:52:40.503Z,951.37
2018-12-24T04:53:40.488Z,951.4
2018-12-24T04:54:40.467Z,951.41
2018-12-24T04:55:40.450Z,951.43
2018-12-24T04:56:40.433Z,951.45
2018-12-24T04:57:40.414Z,951.48
2018-12-24T04:58:40.395Z,951.54
2018-12-24T04:59:40.378Z,951.6
2018-12-24T05:00:40.362Z,951.59
2018-12-24T05:01:40.340Z,951.63
2018-12-24T05:02:40.323Z,951.67
2018-12-24T05:03:40.303Z,951.69
2018-12-24T05:04:40.284Z,951.68
2018-12-24T05:05:40.266Z,951.75
2018-12-24T05:06:40.247Z,951.76
2018-12-24T05:07:40.230Z,951.78
2018-12-24T05:08:40.210Z,951.85
2018-12-24T05:09:40.192Z,951.86
2018-12-24T05:10:40.174Z,951.9
2018-12-24T05:11:40.154Z,951.9
2018-12-24T05:12:40.138Z,951.91
2018-12-24T05:13:40.925Z,951.95
2018-12-24T05:14:40.099Z,952
2018-12-24T05:15:40.081Z,951.96
2018-12-24T05:16:40.063Z,952.03
2018-12-24T05:17:40.043Z,952.06
2018-12-24T05:18:40.027Z,952.13
2018-12-24T05:19:40.010Z,952.13
2018-12-24T05:20:39.990Z,952.2
2018-12-24T05:21:39.971Z,952.21
2018-12-24T05:22:39.952Z,952.24
2018-12-24T05:23:39.935Z,952.29
2018-12-24T05:24:39.915Z,952.3
2018-12-24T05:25:39.896Z,952.35
2018-12-24T05:26:39.877Z,952.4
2018-12-24T05:27:39.962Z,952.39
2018-12-24T05:28:39.841Z,952.49
2018-12-24T05:29:39.824Z,952.45
2018-12-24T05:30:39.804Z,952.51
2018-12-24T05:31:39.785Z,952.57
2018-12-24T05:32:39.765Z,952.61
2018-12-24T05:33:39.747Z,952.64
2018-12-24T05:34:39.733Z,952.66
2018-12-24T05:35:39.711Z,952.64
2018-12-24T05:36:39.693Z,952.69
2018-12-24T05:37:39.675Z,952.81
2018-12-24T05:38:39.656Z,952.77
2018-12-24T05:39:39.637Z,952.86
2018-12-24T05:40:39.618Z,952.93
2018-12-24T05:41:39.600Z,952.96
2018-12-24T05:42:39.584Z,952.96
2018-12-24T05:43:39.564Z,953
2018-12-24T05:44:39.544Z,953
2018-12-24T05:45:39.526Z,953.06
2018-12-24T05:46:39.507Z,953.08
2018-12-24T05:47:39.489Z,953.12
2018-12-24T05:48:39.469Z,953.17
2018-12-24T05:49:39.603Z,953.21
2018-12-24T05:50:39.434Z,953.21
2018-12-24T05:51:39.413Z,953.28
2018-12-24T05:52:39.398Z,953.28
2018-12-24T05:53:39.377Z,953.32
2018-12-24T05:54:39.457Z,953.35
2018-12-24T05:55:39.341Z,953.39
2018-12-24T05:56:39.321Z,953.41
2018-12-24T05:57:39.303Z,953.45
2018-12-24T05:58:39.286Z,953.48
2018-12-24T05:59:39.265Z,953.53
2018-12-24T06:00:39.245Z,953.57
2018-12-24T06:01:39.227Z,953.59
2018-12-24T06:02:39.208Z,953.63
2018-12-24T06:03:39.190Z,953.65
2018-12-24T06:04:39.171Z,953.69
2018-12-24T06:05:39.152Z,953.77
2018-12-24T06:06:39.133Z,953.74
2018-12-24T06:07:39.115Z,953.88
2018-12-24T06:08:39.096Z,953.91
2018-12-24T06:09:39.076Z,953.97
2018-12-24T06:10:39.058Z,953.93
2018-12-24T06:11:39.040Z,954.04
2018-12-24T06:12:39.019Z,954.07
2018-12-24T06:13:39.002Z,954.04
2018-12-24T06:14:38.982Z,954.07
2018-12-24T06:15:38.966Z,954.07
2018-12-24T06:16:38.946Z,954.14
2018-12-24T06:17:38.926Z,954.13
2018-12-24T06:18:38.907Z,954.19
2018-12-24T06:19:38.891Z,954.31
2018-12-24T06:20:38.870Z,954.29
2018-12-24T06:21:38.853Z,954.43
2018-12-24T06:22:38.833Z,954.36
2018-12-24T06:23:38.814Z,954.41
2018-12-24T06:24:38.796Z,954.46
2018-12-24T06:25:38.777Z,954.48
2018-12-24T06:26:38.759Z,954.44
2018-12-24T06:27:38.739Z,954.52
2018-12-24T06:28:38.721Z,954.64
2018-12-24T06:29:38.702Z,954.62
2018-12-24T06:30:38.684Z,954.63
2018-12-24T06:31:38.666Z,954.7
2018-12-24T06:32:38.647Z,954.68
2018-12-24T06:33:38.629Z,954.76
2018-12-24T06:34:38.608Z,954.78
2018-12-24T06:35:38.593Z,954.83
2018-12-24T06:36:38.572Z,954.89
2018-12-24T06:37:38.554Z,954.91
2018-12-24T06:38:38.533Z,954.92
2018-12-24T06:39:38.515Z,954.93
2018-12-24T06:40:38.496Z,954.94
2018-12-24T06:41:38.476Z,954.99
2018-12-24T06:42:38.457Z,954.99
2018-12-24T06:43:38.440Z,954.98
2018-12-24T06:44:38.421Z,955.06
2018-12-24T06:45:38.402Z,955.09
2018-12-24T06:46:38.384Z,955.17
2018-12-24T06:47:38.364Z,955.15
2018-12-24T06:48:38.345Z,955.23
2018-12-24T06:49:38.328Z,955.25
2018-12-24T06:50:38.308Z,955.29
2018-12-24T06:51:38.289Z,955.25
2018-12-24T06:52:38.272Z,955.29
2018-12-24T06:53:38.252Z,955.28
2018-12-24T06:54:38.234Z,955.34
2018-12-24T06:55:38.216Z,955.4
2018-12-24T06:56:38.195Z,955.41
2018-12-24T06:57:38.177Z,955.42
2018-12-24T06:58:38.159Z,955.45
2018-12-24T06:59:38.142Z,955.49
2018-12-24T07:00:38.120Z,955.48
2018-12-24T07:01:38.107Z,955.56
2018-12-24T07:02:38.085Z,955.55
2018-12-24T07:03:38.065Z,955.53
2018-12-24T07:04:38.048Z,955.62
2018-12-24T07:05:38.027Z,955.63
2018-12-24T07:06:38.010Z,955.66
2018-12-24T07:07:37.991Z,955.71
2018-12-24T07:08:37.971Z,955.7
2018-12-24T07:09:37.953Z,955.74
2018-12-24T07:10:37.936Z,955.8
2018-12-24T07:11:37.915Z,955.78
2018-12-24T07:12:37.896Z,955.83
2018-12-24T07:13:37.878Z,955.79
2018-12-24T07:14:37.859Z,955.84
2018-12-24T07:15:37.842Z,955.84
2018-12-24T07:16:37.823Z,955.88
2018-12-24T07:17:37.813Z,955.94
2018-12-24T07:18:37.795Z,955.93
2018-12-24T07:19:37.766Z,956.04
2018-12-24T07:20:37.749Z,956.11
2018-12-24T07:21:37.733Z,956.07
2018-12-24T07:22:37.711Z,956.08
2018-12-24T07:23:37.692Z,956.16
2018-12-24T07:24:37.674Z,956.2
2018-12-24T07:25:37.654Z,956.22
2018-12-24T07:26:37.636Z,956.28
2018-12-24T07:27:37.618Z,956.37
2018-12-24T07:28:37.600Z,956.43
2018-12-24T07:29:37.584Z,956.45
2018-12-24T07:30:37.563Z,956.47
2018-12-24T07:31:37.545Z,956.55
2018-12-24T07:32:37.526Z,956.59
2018-12-24T07:33:37.506Z,956.62
2018-12-24T07:34:37.489Z,956.7
2018-12-24T07:35:37.469Z,956.71
2018-12-24T07:36:37.450Z,956.7
2018-12-24T07:37:37.432Z,956.75
2018-12-24T07:38:37.483Z,956.79
2018-12-24T07:39:37.396Z,956.8
2018-12-24T07:40:37.376Z,956.82
2018-12-24T07:41:37.357Z,956.86
2018-12-24T07:42:37.340Z,956.88
2018-12-24T07:43:37.320Z,956.89
2018-12-24T07:44:37.302Z,956.96
2018-12-24T07:45:37.282Z,956.96
2018-12-24T07:46:37.265Z,956.99
2018-12-24T07:47:37.338Z,957.04
2018-12-24T07:48:37.231Z,957.06
2018-12-24T07:49:37.214Z,957.1
2018-12-24T07:50:37.192Z,957.12
2018-12-24T07:51:37.171Z,957.18
2018-12-24T07:52:37.153Z,957.17
2018-12-24T07:53:37.135Z,957.24
2018-12-24T07:54:37.116Z,957.29
2018-12-24T07:55:37.096Z,957.27
2018-12-24T07:56:37.078Z,957.31
2018-12-24T07:57:37.059Z,957.33
2018-12-24T07:58:37.040Z,957.47
2018-12-24T07:59:37.021Z,957.45
2018-12-24T08:00:37.004Z,957.47
2018-12-24T08:01:36.985Z,957.53
2018-12-24T08:02:36.965Z,957.57
2018-12-24T08:03:36.946Z,957.61
2018-12-24T08:04:36.928Z,957.57
2018-12-24T08:05:36.910Z,957.63
2018-12-24T08:06:36.891Z,957.66
2018-12-24T08:07:36.874Z,957.67
2018-12-24T08:08:36.854Z,957.62
2018-12-24T08:09:36.835Z,957.69
2018-12-24T08:10:36.817Z,957.66
2018-12-24T08:11:36.799Z,957.68
2018-12-24T08:12:36.780Z,957.72
2018-12-24T08:13:36.761Z,957.68
2018-12-24T08:14:36.743Z,957.67
2018-12-24T08:15:36.730Z,957.75
2018-12-24T08:16:36.705Z,957.69
2018-12-24T08:17:36.691Z,957.76
2018-12-24T08:18:36.667Z,957.82
2018-12-24T08:19:36.649Z,957.82
2018-12-24T08:20:36.630Z,957.81
2018-12-24T08:21:36.612Z,957.88
2018-12-24T08:22:36.593Z,957.82
2018-12-24T08:23:36.575Z,957.97
2018-12-24T08:24:36.556Z,957.97
2018-12-24T08:25:36.538Z,958.02
2018-12-24T08:26:36.519Z,958
2018-12-24T08:27:36.500Z,958.07
2018-12-24T08:28:36.482Z,958.03
2018-12-24T08:30:47.323Z,958.08
2018-12-24T08:31:21.641Z,958.08
2018-12-24T08:32:21.612Z,958.09
2018-12-24T08:33:21.598Z,958.11
2018-12-24T08:34:21.573Z,958.19
2018-12-24T08:35:21.555Z,958.16
2018-12-24T08:36:21.837Z,958.22
2018-12-24T08:37:21.518Z,958.2
2018-12-24T08:38:21.500Z,958.29
2018-12-24T08:39:21.479Z,958.24
2018-12-24T08:40:21.463Z,958.24
2018-12-24T08:41:21.695Z,958.26
2018-12-24T08:42:21.437Z,958.29
2018-12-24T08:43:21.406Z,958.29
2018-12-24T08:44:21.388Z,958.28
2018-12-24T08:45:21.477Z,958.34
2018-12-24T08:46:21.350Z,958.37
2018-12-24T08:47:21.333Z,958.35
2018-12-24T08:48:21.315Z,958.37
2018-12-24T08:49:21.295Z,958.46
2018-12-24T08:50:21.278Z,958.47
2018-12-24T08:51:21.260Z,958.49
2018-12-24T08:52:21.242Z,958.6
2018-12-24T08:53:21.224Z,958.62
2018-12-24T08:54:21.206Z,958.65
2018-12-24T08:55:21.187Z,958.62
2018-12-24T08:56:21.169Z,958.69
2018-12-24T08:57:21.150Z,958.66
2018-12-24T08:58:21.133Z,958.71
2018-12-24T08:59:21.115Z,958.78
2018-12-24T09:00:21.095Z,958.79
2018-12-24T09:01:21.078Z,958.83
2018-12-24T09:02:21.058Z,958.8
2018-12-24T09:03:21.046Z,958.87
2018-12-24T09:04:21.023Z,958.94
2018-12-24T09:05:21.004Z,958.9
2018-12-24T09:06:20.986Z,958.92
2018-12-24T09:07:20.966Z,958.9
2018-12-24T09:08:20.949Z,958.94
2018-12-24T09:09:20.931Z,959.02
2018-12-24T09:10:20.913Z,958.99
2018-12-24T09:11:20.893Z,959
2018-12-24T09:12:20.876Z,959.02
2018-12-24T09:13:20.858Z,959.06
2018-12-24T09:14:20.839Z,959.13
2018-12-24T09:15:20.821Z,959.11
2018-12-24T09:16:20.803Z,959.12
2018-12-24T09:17:20.784Z,959.16
2018-12-24T09:18:20.766Z,959.16
2018-12-24T09:19:20.748Z,959.18
2018-12-24T09:20:20.730Z,959.21
2018-12-24T09:21:20.712Z,959.22
2018-12-24T09:22:20.692Z,959.22
2018-12-24T09:23:20.675Z,959.25
2018-12-24T09:24:20.658Z,959.26
2018-12-24T09:25:20.638Z,959.24
2018-12-24T09:26:20.619Z,959.3
2018-12-24T09:27:20.605Z,959.31
2018-12-24T09:28:20.584Z,959.29
2018-12-24T09:29:20.566Z,959.33
2018-12-24T09:30:20.549Z,959.33
2018-12-24T09:31:20.529Z,959.38
2018-12-24T09:32:20.511Z,959.39
2018-12-24T09:33:20.514Z,959.42
2018-12-24T09:34:20.473Z,959.49
2018-12-24T09:35:20.455Z,959.5
2018-12-24T09:36:20.436Z,959.49
2018-12-24T09:37:20.418Z,959.5
2018-12-24T09:38:20.404Z,959.53
2018-12-24T09:39:20.382Z,959.57
2018-12-24T09:40:20.363Z,959.55
2018-12-24T09:41:20.346Z,959.55
2018-12-24T09:42:20.328Z,959.57
2018-12-24T09:43:20.309Z,959.61
2018-12-24T09:44:20.293Z,959.65
2018-12-24T09:45:20.273Z,959.67
2018-12-24T09:46:20.254Z,959.71
2018-12-24T09:47:20.237Z,959.75
2018-12-24T09:48:20.220Z,959.73
2018-12-24T09:49:20.201Z,959.74
2018-12-24T09:50:20.185Z,959.75
2018-12-24T09:51:20.163Z,959.76
2018-12-24T09:52:20.145Z,959.78
2018-12-24T09:53:20.127Z,959.77
2018-12-24T09:54:20.113Z,959.87
2018-12-24T09:55:20.090Z,959.77
2018-12-24T09:56:20.078Z,959.79
2018-12-24T09:57:20.055Z,959.8
2018-12-24T09:58:20.035Z,959.81
2018-12-24T09:59:20.018Z,959.78
2018-12-24T10:00:19.999Z,959.86
2018-12-24T10:01:19.982Z,959.85
2018-12-24T10:02:19.967Z,959.89
2018-12-24T10:03:19.945Z,959.88
2018-12-24T10:04:19.927Z,959.9
2018-12-24T10:05:19.910Z,959.92
2018-12-24T10:06:19.891Z,959.87
2018-12-24T10:07:19.873Z,959.91
2018-12-24T10:08:19.855Z,959.91
2018-12-24T10:09:19.836Z,959.88
2018-12-24T10:10:19.817Z,959.91
2018-12-24T10:11:19.802Z,959.92
2018-12-24T10:12:19.782Z,959.95
2018-12-24T10:13:19.765Z,960.01
2018-12-24T10:14:19.748Z,959.97
2018-12-24T10:15:19.728Z,959.96
2018-12-24T10:16:19.711Z,960.02
2018-12-24T10:17:19.691Z,959.98
2018-12-24T10:18:19.673Z,960.05
2018-12-24T10:19:19.657Z,960.03
2018-12-24T10:20:19.752Z,960.13
2018-12-24T10:21:19.619Z,960.14
2018-12-24T10:22:19.603Z,960.09
2018-12-24T10:23:19.585Z,960.11
2018-12-24T10:24:19.566Z,960.19
2018-12-24T10:25:19.550Z,960.2
2018-12-24T10:26:19.532Z,960.13
2018-12-24T10:27:19.513Z,960.22
2018-12-24T10:28:19.495Z,960.19
2018-12-24T10:29:19.668Z,960.19
2018-12-24T10:30:19.460Z,960.16
2018-12-24T10:31:19.441Z,960.23
2018-12-24T10:32:19.424Z,960.17
2018-12-24T10:33:19.406Z,960.22
2018-12-24T10:34:19.389Z,960.2
2018-12-24T10:35:19.370Z,960.18
2018-12-24T10:36:19.352Z,960.25
2018-12-24T10:37:19.337Z,960.25
2018-12-24T10:38:19.316Z,960.24
2018-12-24T10:39:19.300Z,960.25
2018-12-24T10:40:19.281Z,960.26
2018-12-24T10:41:19.263Z,960.26
2018-12-24T10:42:19.245Z,960.26
2018-12-24T10:43:19.227Z,960.22
2018-12-24T10:44:19.211Z,960.27
2018-12-24T10:45:19.193Z,960.24
2018-12-24T10:46:19.173Z,960.21
2018-12-24T10:47:19.156Z,960.21
2018-12-24T10:48:19.138Z,960.24
2018-12-24T10:49:19.119Z,960.23
2018-12-24T10:50:19.100Z,960.24
2018-12-24T10:51:19.084Z,960.16
2018-12-24T10:52:19.067Z,960.27
2018-12-24T10:53:19.048Z,960.24
2018-12-24T10:54:19.031Z,960.26
2018-12-24T10:55:19.013Z,960.24
2018-12-24T10:56:18.995Z,960.27
2018-12-24T10:57:18.977Z,960.32
2018-12-24T10:58:18.960Z,960.31
2018-12-24T10:59:18.942Z,960.35
2018-12-24T11:00:18.924Z,960.43
2018-12-24T11:01:18.906Z,960.44
2018-12-24T11:02:18.888Z,960.44
2018-12-24T11:03:18.880Z,960.48
2018-12-24T11:04:18.854Z,960.51
2018-12-24T11:05:18.834Z,960.48
2018-12-24T11:06:18.817Z,960.48
2018-12-24T11:07:18.799Z,960.52
2018-12-24T11:08:18.780Z,960.49
2018-12-24T11:09:18.763Z,960.56
2018-12-24T11:10:18.745Z,960.56
2018-12-24T11:11:18.727Z,960.57
2018-12-24T11:12:18.709Z,960.6
2018-12-24T11:13:18.691Z,960.61
2018-12-24T11:14:18.673Z,960.64
2018-12-24T11:15:24.992Z,960.6
2018-12-24T11:16:18.637Z,960.65
2018-12-24T11:17:18.621Z,960.61
2018-12-24T11:18:18.602Z,960.6
2018-12-24T11:19:18.586Z,960.64
2018-12-24T11:20:18.566Z,960.63
2018-12-24T11:21:18.548Z,960.69
2018-12-24T11:22:18.529Z,960.67
2018-12-24T11:23:18.512Z,960.64
2018-12-24T11:24:18.494Z,960.7
2018-12-24T11:25:18.476Z,960.72
2018-12-24T11:26:18.457Z,960.77
2018-12-24T11:27:18.441Z,960.77
2018-12-24T11:28:18.422Z,960.79
2018-12-24T11:29:18.404Z,960.83
2018-12-24T11:30:18.385Z,960.82
2018-12-24T11:31:18.367Z,960.84
2018-12-24T11:32:18.350Z,960.85
2018-12-24T11:33:18.331Z,960.88
2018-12-24T11:34:18.313Z,960.91
2018-12-24T11:35:18.295Z,960.89
2018-12-24T11:36:18.277Z,960.91
2018-12-24T11:37:18.257Z,960.91
2018-12-24T11:38:18.240Z,960.95
2018-12-24T11:39:18.222Z,960.95
2018-12-24T11:40:18.205Z,960.94
2018-12-24T11:41:18.186Z,960.99
2018-12-24T11:42:18.170Z,961.04
2018-12-24T11:43:18.150Z,961.01
2018-12-24T11:44:18.134Z,961.01
2018-12-24T11:45:18.116Z,961.05
2018-12-24T11:46:18.095Z,961.04
2018-12-24T11:47:18.076Z,961.07
2018-12-24T11:48:18.057Z,961.15
2018-12-24T11:49:18.041Z,961.09
2018-12-24T11:50:18.023Z,961.14
2018-12-24T11:51:18.005Z,961.18
2018-12-24T11:52:17.986Z,961.24
2018-12-24T11:53:17.967Z,961.21
2018-12-24T11:54:17.949Z,961.29
2018-12-24T11:55:17.930Z,961.29
2018-12-24T11:56:17.912Z,961.31
2018-12-24T11:57:17.895Z,961.32
2018-12-24T11:58:17.874Z,961.31
2018-12-24T11:59:17.857Z,961.34
2018-12-24T12:00:17.838Z,961.35
2018-12-24T12:01:17.831Z,961.33
2018-12-24T12:02:17.801Z,961.31
2018-12-24T12:03:17.784Z,961.38
2018-12-24T12:04:17.769Z,961.36
2018-12-24T12:05:17.748Z,961.41
2018-12-24T12:06:19.793Z,961.37
2018-12-24T12:07:17.711Z,961.39
2018-12-24T12:08:17.696Z,961.4
2018-12-24T12:09:17.674Z,961.44
2018-12-24T12:10:17.655Z,961.45
2018-12-24T12:11:17.638Z,961.47
2018-12-24T12:12:17.623Z,961.45
2018-12-24T12:13:17.600Z,961.45
2018-12-24T12:14:17.584Z,961.5
2018-12-24T12:15:17.565Z,961.51
2018-12-24T12:16:17.546Z,961.56
2018-12-24T12:17:17.527Z,961.57
2018-12-24T12:18:17.511Z,961.58
2018-12-24T12:19:17.494Z,961.61
2018-12-24T12:20:17.473Z,961.58
2018-12-24T12:21:17.455Z,961.61
2018-12-24T12:22:17.437Z,961.64
2018-12-24T12:23:17.418Z,961.64
2018-12-24T12:24:17.399Z,961.64
2018-12-24T12:25:17.391Z,961.63
2018-12-24T12:26:17.365Z,961.68
2018-12-24T12:27:17.346Z,961.7
2018-12-24T12:28:17.362Z,961.69
2018-12-24T12:29:17.310Z,961.7
2018-12-24T12:30:17.293Z,961.72
2018-12-24T12:31:17.274Z,961.71
2018-12-24T12:32:17.255Z,961.74